PWSweather.com
Personal Weather Stations
Station Observations
OAK1E
Piedmont Ave District, Oakland, CA 94611

Piedmont Ave DistrictOakland, CA 94611

Lat: 37.832205, Lon: -122.250229

Elevation: 176

Station Type: Davis Vantage Pro 2

http://www.mayacamaswx.com/Oakland1E/Oakland1E.htm

Latest ConditionsUpdated 8:10:00 AM PDT Saturday, Oct 25, 2014
Currently Today's Max Today's Min Today's Average
Temperature 59.0°F15.0°C 65.0°F18.3°C 59.0°F15.0°C 62.5°F16.9°C
Dew Point 58.2°F14.6°C 59.7°F15.4°C 56.3°F13.5°C 57.7°F14.3°C
Winds Calm Calm Calm SECalm SE - Calm Calm
Wind Gusts -- -- - -
Humidity 97% 97% 76% 85%
Pressure 29.98 in1015.2 mb 29.98 in1015.2 mb 29.89 in1012.2 mb -
Precipitation - 0.31 in7.9 mm - -
Hour Temp Dew Point Humidity Winds Wind Gusts Pressure Precip Precip Rate Daily Precip Total
08:10 AM 59.0°F15.0°C 58.2°F14.6°C 97% Calm Calm -- 29.98 in1015.2 mb 0.00 in0.0 mm 0.00 in/hr0.0 mm/hr 0.31 in7.9 mm
08:00 AM 59.0°F15.0°C 58.2°F14.6°C 97% Calm Calm -- 29.97 in1014.9 mb 0.01 in0.3 mm 0.01 in/hr0.3 mm/hr 0.31 in7.9 mm
07:50 AM 59.0°F15.0°C 58.2°F14.6°C 97% Calm Calm -- 29.97 in1014.9 mb 0.02 in0.5 mm 0.12 in/hr3.0 mm/hr 0.30 in7.6 mm
07:40 AM 59.0°F15.0°C 58.2°F14.6°C 97% Calm Calm -- 29.97 in1014.9 mb 0.01 in0.3 mm 0.06 in/hr1.5 mm/hr 0.28 in7.1 mm
07:30 AM 59.0°F15.0°C 58.2°F14.6°C 97% Calm Calm -- 29.97 in1014.9 mb 0.00 in0.0 mm 0.00 in/hr0.0 mm/hr 0.27 in6.9 mm
07:20 AM 59.0°F15.0°C 57.9°F14.4°C 96% Calm Calm -- 29.96 in1014.6 mb 0.00 in0.0 mm 0.00 in/hr0.0 mm/hr 0.27 in6.9 mm
07:10 AM 59.0°F15.0°C 57.9°F14.4°C 96% Calm Calm -- 29.96 in1014.6 mb 0.00 in0.0 mm 0.00 in/hr0.0 mm/hr 0.27 in6.9 mm
07:00 AM 59.1°F15.1°C 57.9°F14.4°C 96% Calm Calm -- 29.96 in1014.6 mb 0.00 in0.0 mm 0.00 in/hr0.0 mm/hr 0.27 in6.9 mm
06:50 AM 59.2°F15.1°C 58.1°F14.5°C 96% Calm Calm -- 29.97 in1014.9 mb 0.00 in0.0 mm 0.00 in/hr0.0 mm/hr 0.27 in6.9 mm
06:40 AM 59.3°F15.2°C 58.2°F14.6°C 96% Calm Calm -- 29.96 in1014.6 mb 0.02 in0.5 mm 0.12 in/hr3.0 mm/hr 0.27 in6.9 mm
06:30 AM 59.7°F15.4°C 58.6°F14.8°C 96% Calm Calm -- 29.97 in1014.9 mb 0.01 in0.3 mm 0.06 in/hr1.5 mm/hr 0.25 in6.4 mm
06:20 AM 60.2°F15.7°C 59.1°F15.1°C 96% Calm Calm -- 29.96 in1014.6 mb 0.02 in0.5 mm 0.12 in/hr3.0 mm/hr 0.24 in6.1 mm
06:10 AM 60.5°F15.8°C 59.4°F15.2°C 96% Calm Calm -- 29.95 in1014.2 mb 0.02 in0.5 mm 0.12 in/hr3.0 mm/hr 0.23 in5.8 mm
06:00 AM 60.7°F15.9°C 59.3°F15.2°C 95% Calm Calm -- 29.94 in1013.9 mb 0.02 in0.5 mm 0.02 in/hr0.5 mm/hr 0.21 in5.3 mm
05:50 AM 60.9°F16.1°C 59.4°F15.2°C 95% Calm Calm -- 29.94 in1013.9 mb 0.03 in0.8 mm 0.18 in/hr4.6 mm/hr 0.20 in5.1 mm
05:40 AM 61.1°F16.2°C 59.4°F15.2°C 94% Calm Calm -- 29.94 in1013.9 mb 0.04 in1.0 mm 0.24 in/hr6.1 mm/hr 0.17 in4.3 mm
05:30 AM 61.4°F16.3°C 59.4°F15.2°C 93% Calm Calm -- 29.93 in1013.5 mb 0.03 in0.8 mm 0.18 in/hr4.6 mm/hr 0.13 in3.3 mm
05:20 AM 62.1°F16.7°C 59.4°F15.2°C 91% Calm Calm -- 29.93 in1013.5 mb 0.06 in1.5 mm 0.36 in/hr9.1 mm/hr 0.11 in2.8 mm
05:10 AM 63.3°F17.4°C 59.7°F15.4°C 88% Calm Calm -- 29.93 in1013.5 mb 0.07 in1.8 mm 0.42 in/hr10.7 mm/hr 0.07 in1.8 mm
05:00 AM 64.0°F17.8°C 59.1°F15.1°C 84% Calm Calm -- 29.91 in1012.9 mb 0.00 in0.0 mm 0.00 in/hr0.0 mm/hr 0.00 in0.0 mm
04:50 AM 64.7°F18.2°C 59.4°F15.2°C 83% Calm Calm -- 29.89 in1012.2 mb 0.00 in0.0 mm 0.00 in/hr0.0 mm/hr 0.00 in0.0 mm
04:40 AM 65.0°F18.3°C 58.0°F14.4°C 78% Calm Calm -- 29.89 in1012.2 mb 0.00 in0.0 mm 0.00 in/hr0.0 mm/hr 0.00 in0.0 mm
04:30 AM 64.9°F18.3°C 57.9°F14.4°C 78% Calm Calm -- 29.89 in1012.2 mb 0.00 in0.0 mm 0.00 in/hr0.0 mm/hr 0.00 in0.0 mm
04:20 AM 64.8°F18.2°C 57.8°F14.3°C 78% Calm Calm -- 29.89 in1012.2 mb 0.00 in0.0 mm 0.00 in/hr0.0 mm/hr 0.00 in0.0 mm
04:10 AM 64.7°F18.2°C 57.7°F14.3°C 78% Calm Calm -- 29.89 in1012.2 mb 0.00 in0.0 mm 0.00 in/hr0.0 mm/hr 0.00 in0.0 mm
04:00 AM 64.7°F18.2°C 57.0°F13.9°C 76% Calm Calm -- 29.89 in1012.2 mb 0.00 in0.0 mm 0.00 in/hr0.0 mm/hr 0.00 in0.0 mm
03:50 AM 64.7°F18.2°C 57.0°F13.9°C 76% Calm Calm -- 29.89 in1012.2 mb 0.00 in0.0 mm 0.00 in/hr0.0 mm/hr 0.00 in0.0 mm
03:40 AM 64.7°F18.2°C 57.0°F13.9°C 76% Calm Calm -- 29.90 in1012.5 mb 0.00 in0.0 mm 0.00 in/hr0.0 mm/hr 0.00 in0.0 mm
03:30 AM 64.7°F18.2°C 57.3°F14.1°C 77% Calm Calm -- 29.90 in1012.5 mb 0.00 in0.0 mm 0.00 in/hr0.0 mm/hr 0.00 in0.0 mm
03:20 AM 64.6°F18.1°C 56.9°F13.8°C 76% Calm Calm -- 29.90 in1012.5 mb 0.00 in0.0 mm 0.00 in/hr0.0 mm/hr 0.00 in0.0 mm
03:10 AM 64.5°F18.1°C 56.8°F13.8°C 76% Calm Calm -- 29.89 in1012.2 mb 0.00 in0.0 mm 0.00 in/hr0.0 mm/hr 0.00 in0.0 mm
03:00 AM 64.5°F18.1°C 57.1°F13.9°C 77% Calm Calm -- 29.90 in1012.5 mb 0.00 in0.0 mm 0.00 in/hr0.0 mm/hr 0.00 in0.0 mm
02:50 AM 64.3°F17.9°C 56.9°F13.8°C 77% Calm Calm -- 29.90 in1012.5 mb 0.00 in0.0 mm 0.00 in/hr0.0 mm/hr 0.00 in0.0 mm
02:40 AM 64.2°F17.9°C 56.8°F13.8°C 77% Calm Calm -- 29.90 in1012.5 mb 0.00 in0.0 mm 0.00 in/hr0.0 mm/hr 0.00 in0.0 mm
02:30 AM 64.0°F17.8°C 56.6°F13.7°C 77% Calm Calm -- 29.90 in1012.5 mb 0.00 in0.0 mm 0.00 in/hr0.0 mm/hr 0.00 in0.0 mm
02:20 AM 63.7°F17.6°C 56.4°F13.6°C 77% Calm Calm -- 29.90 in1012.5 mb 0.00 in0.0 mm 0.00 in/hr0.0 mm/hr 0.00 in0.0 mm
02:10 AM 63.3°F17.4°C 56.3°F13.5°C 78% Calm Calm -- 29.91 in1012.9 mb 0.00 in0.0 mm 0.00 in/hr0.0 mm/hr 0.00 in0.0 mm
02:00 AM 63.0°F17.2°C 56.7°F13.7°C 80% Calm Calm -- 29.91 in1012.9 mb 0.00 in0.0 mm 0.00 in/hr0.0 mm/hr 0.00 in0.0 mm
01:50 AM 63.0°F17.2°C 56.7°F13.7°C 80% Calm Calm -- 29.91 in1012.9 mb 0.00 in0.0 mm 0.00 in/hr0.0 mm/hr 0.00 in0.0 mm
01:40 AM 63.2°F17.3°C 56.6°F13.7°C 79% Calm Calm -- 29.91 in1012.9 mb 0.00 in0.0 mm 0.00 in/hr0.0 mm/hr 0.00 in0.0 mm
01:30 AM 63.5°F17.5°C 56.8°F13.8°C 79% Calm Calm -- 29.91 in1012.9 mb 0.00 in0.0 mm 0.00 in/hr0.0 mm/hr 0.00 in0.0 mm
01:20 AM 63.6°F17.6°C 57.0°F13.9°C 79% Calm Calm -- 29.91 in1012.9 mb 0.00 in0.0 mm 0.00 in/hr0.0 mm/hr 0.00 in0.0 mm
01:10 AM 63.6°F17.6°C 57.0°F13.9°C 79% Calm Calm -- 29.92 in1013.2 mb 0.00 in0.0 mm 0.00 in/hr0.0 mm/hr 0.00 in0.0 mm
01:00 AM 63.8°F17.7°C 56.8°F13.8°C 78% Calm Calm -- 29.91 in1012.9 mb 0.00 in0.0 mm 0.00 in/hr0.0 mm/hr 0.00 in0.0 mm
12:50 AM 63.7°F17.6°C 56.7°F13.7°C 78% Calm Calm -- 29.91 in1012.9 mb 0.00 in0.0 mm 0.00 in/hr0.0 mm/hr 0.00 in0.0 mm
12:40 AM 63.6°F17.6°C 56.6°F13.7°C 78% Calm Calm -- 29.92 in1013.2 mb 0.00 in0.0 mm 0.00 in/hr0.0 mm/hr 0.00 in0.0 mm
12:30 AM 63.5°F17.5°C 56.5°F13.6°C 78% Calm Calm -- 29.91 in1012.9 mb 0.00 in0.0 mm 0.00 in/hr0.0 mm/hr 0.00 in0.0 mm
12:20 AM 63.4°F17.4°C 56.8°F13.8°C 79% Calm Calm -- 29.92 in1013.2 mb 0.00 in0.0 mm 0.00 in/hr0.0 mm/hr 0.00 in0.0 mm
12:10 AM 63.2°F17.3°C 56.6°F13.7°C 79% Calm Calm -- 29.92 in1013.2 mb 0.00 in0.0 mm 0.00 in/hr0.0 mm/hr 0.00 in0.0 mm
12:00 AM 63.1°F17.3°C 56.8°F13.8°C 80% Calm Calm -- 29.93 in1013.5 mb 0.00 in0.0 mm 0.00 in/hr0.0 mm/hr 0.00 in0.0 mm